Time;durP1;ratioP1;P1;durP2;ratioP2;P2;SDS_P1;SDS_P2;PMS_P1;PMS_P2;Temp;Humidity;BMP_temperature;BMP_pressure;BME280_temperature;BME280_humidity;BME280_pressure;Samples;Min_cycle;Max_cycle;Signal;HPM_P1;HPM_P2
2022/11/13 00:01:30;;;;;;;4.13;3.77;;;;;;;;;;5052400;28;20202;-79
2022/11/13 00:03:58;;;;;;;4.37;3.83;;;;;;;;;;5052708;28;20229;-79
2022/11/13 00:06:26;;;;;;;4.47;4.07;;;;;;;;;;5052064;28;20244;-78
2022/11/13 00:08:54;;;;;;;4.83;4.33;;;;;;;;;;5052142;28;20703;-79
2022/11/13 00:11:22;;;;;;;4.70;4.07;;;;;;;;;;5052259;28;20206;-79
2022/11/13 00:13:49;;;;;;;6.70;4.60;;;;;;;;;;5052425;28;20212;-80
2022/11/13 00:16:17;;;;;;;6.23;5.60;;;;;;;;;;5051897;28;20198;-79
2022/11/13 00:18:45;;;;;;;5.00;4.57;;;;;;;;;;5052372;28;20194;-78
2022/11/13 00:21:13;;;;;;;5.37;4.30;;;;;;;;;;5052229;28;20225;-78
2022/11/13 00:23:40;;;;;;;4.03;3.63;;;;;;;;;;5052132;28;20600;-79
2022/11/13 00:26:08;;;;;;;4.80;4.03;;;;;;;;;;5051949;28;20206;-79
2022/11/13 00:28:36;;;;;;;6.33;4.30;;;;;;;;;;5051975;28;20206;-79
2022/11/13 00:31:05;;;;;;;4.93;3.70;;;;;;;;;;5051884;28;20665;-79
2022/11/13 00:33:32;;;;;;;4.83;4.23;;;;;;;;;;5051415;28;20202;-79
2022/11/13 00:36:03;;;;;;;3.73;3.40;;;;;;;;;;5051785;28;20205;-79
2022/11/13 00:38:30;;;;;;;4.17;3.73;;;;;;;;;;5051960;28;20206;-79
2022/11/13 00:40:56;;;;;;;5.13;4.20;;;;;;;;;;5051827;28;20206;-79
2022/11/13 00:43:23;;;;;;;4.00;3.37;;;;;;;;;;5051874;28;20267;-79
2022/11/13 00:45:55;;;;;;;4.67;3.60;;;;;;;;;;5050433;28;20198;-79
2022/11/13 00:48:21;;;;;;;4.10;3.80;;;;;;;;;;5051570;28;20206;-79
2022/11/13 00:50:49;;;;;;;3.63;3.33;;;;;;;;;;5051345;28;20316;-79
2022/11/13 00:53:16;;;;;;;5.07;4.00;;;;;;;;;;5051709;28;20205;-79
2022/11/13 00:55:43;;;;;;;5.43;4.10;;;;;;;;;;5051244;28;20212;-79
2022/11/13 00:58:10;;;;;;;5.37;4.87;;;;;;;;;;5051454;28;20281;-79
2022/11/13 01:00:36;;;;;;;4.57;3.97;;;;;;;;;;5051185;28;20202;-79
2022/11/13 01:03:05;;;;;;;5.93;4.57;;;;;;;;;;5051463;28;20229;-79
2022/11/13 01:05:35;;;;;;;3.80;3.50;;;;;;;;;;5050784;28;20754;-79
2022/11/13 01:08:02;;;;;;;4.60;4.07;;;;;;;;;;5051096;28;20216;-79
2022/11/13 01:10:29;;;;;;;5.87;4.57;;;;;;;;;;5051073;28;20251;-79
2022/11/13 01:12:56;;;;;;;5.83;4.60;;;;;;;;;;5051143;28;20637;-79
2022/11/13 01:15:23;;;;;;;4.80;4.37;;;;;;;;;;5050681;28;20206;-78
2022/11/13 01:17:50;;;;;;;4.87;4.40;;;;;;;;;;5051541;28;20275;-79
2022/11/13 01:20:18;;;;;;;4.67;4.27;;;;;;;;;;5050980;28;20588;-79
2022/11/13 01:22:45;;;;;;;4.97;4.47;;;;;;;;;;5050924;28;20230;-79
2022/11/13 01:25:12;;;;;;;4.40;3.93;;;;;;;;;;5050679;28;20202;-79
2022/11/13 01:27:39;;;;;;;4.70;3.73;;;;;;;;;;5050901;28;20248;-79
2022/11/13 01:30:07;;;;;;;4.80;4.30;;;;;;;;;;5050398;28;20202;-78
2022/11/13 01:32:34;;;;;;;3.87;3.57;;;;;;;;;;5050984;28;20715;-78
2022/11/13 01:35:01;;;;;;;3.73;3.43;;;;;;;;;;5050871;28;20225;-79
2022/11/13 01:37:29;;;;;;;4.17;3.27;;;;;;;;;;5050815;28;20595;-79
2022/11/13 01:39:56;;;;;;;4.03;3.63;;;;;;;;;;5050502;28;20202;-79
2022/11/13 01:42:23;;;;;;;3.23;3.00;;;;;;;;;;5050287;28;20194;-79
2022/11/13 01:44:52;;;;;;;4.40;3.77;;;;;;;;;;5050571;28;20205;-79
2022/11/13 01:47:19;;;;;;;3.80;3.40;;;;;;;;;;5050654;28;20274;-79
2022/11/13 01:49:47;;;;;;;3.30;3.00;;;;;;;;;;5036638;28;20202;-79
2022/11/13 01:52:16;;;;;;;3.43;3.13;;;;;;;;;;5049976;28;20194;-79
2022/11/13 01:54:47;;;;;;;3.00;2.70;;;;;;;;;;5049704;28;20198;-79
2022/11/13 01:57:15;;;;;;;3.60;3.30;;;;;;;;;;5049053;28;20741;-80
2022/11/13 01:59:45;;;;;;;3.80;3.37;;;;;;;;;;5050076;28;20256;-80
2022/11/13 02:02:12;;;;;;;4.07;3.53;;;;;;;;;;5050310;28;20217;-79
2022/11/13 02:04:39;;;;;;;3.77;3.20;;;;;;;;;;5050324;28;20233;-78
2022/11/13 02:07:07;;;;;;;6.37;3.50;;;;;;;;;;5050522;28;20198;-78
2022/11/13 02:09:36;;;;;;;6.87;4.03;;;;;;;;;;5049724;28;20248;-79
2022/11/13 02:12:05;;;;;;;3.57;3.27;;;;;;;;;;5050563;28;20209;-79
2022/11/13 02:14:33;;;;;;;3.47;3.17;;;;;;;;;;5050008;28;20202;-79
2022/11/13 02:17:03;;;;;;;4.90;3.73;;;;;;;;;;5049983;28;20202;-79
2022/11/13 02:19:32;;;;;;;5.10;4.60;;;;;;;;;;5050060;28;20198;-79
2022/11/13 02:22:04;;;;;;;4.30;3.90;;;;;;;;;;5049841;28;20217;-78
2022/11/13 02:24:34;;;;;;;3.60;3.30;;;;;;;;;;5049715;28;20233;-79
2022/11/13 02:27:03;;;;;;;4.70;3.80;;;;;;;;;;5050318;28;20209;-78
2022/11/13 02:29:30;;;;;;;5.93;3.60;;;;;;;;;;5049856;28;20210;-79
2022/11/13 02:31:56;;;;;;;4.70;4.20;;;;;;;;;;5050231;28;20202;-78
2022/11/13 02:34:23;;;;;;;4.43;3.30;;;;;;;;;;5049343;28;20260;-79
2022/11/13 02:36:50;;;;;;;5.03;3.77;;;;;;;;;;5050141;28;20672;-79
2022/11/13 02:39:17;;;;;;;7.47;4.47;;;;;;;;;;5049938;28;20206;-79
2022/11/13 02:41:45;;;;;;;4.47;4.03;;;;;;;;;;5049774;28;20210;-79
2022/11/13 02:44:12;;;;;;;5.33;3.90;;;;;;;;;;5050058;28;20253;-79
2022/11/13 02:46:38;;;;;;;3.83;3.47;;;;;;;;;;5049737;28;20566;-79
2022/11/13 02:49:06;;;;;;;4.20;3.80;;;;;;;;;;5049799;28;20210;-79
2022/11/13 02:51:33;;;;;;;4.20;3.87;;;;;;;;;;5050057;28;20259;-79
2022/11/13 02:54:00;;;;;;;4.77;4.30;;;;;;;;;;5049885;28;20259;-79
2022/11/13 02:56:26;;;;;;;4.50;4.10;;;;;;;;;;5049538;28;20248;-79
2022/11/13 02:58:55;;;;;;;4.43;4.03;;;;;;;;;;5050192;28;20704;-79
2022/11/13 03:01:21;;;;;;;4.73;4.33;;;;;;;;;;5049611;28;20197;-78
2022/11/13 03:03:48;;;;;;;6.80;6.10;;;;;;;;;;5049428;28;20230;-79
2022/11/13 03:06:15;;;;;;;4.93;4.43;;;;;;;;;;5049616;28;20210;-79
2022/11/13 03:08:42;;;;;;;5.03;4.07;;;;;;;;;;5051567;28;20813;-79
2022/11/13 03:11:09;;;;;;;5.00;4.00;;;;;;;;;;5053429;28;20213;-79
2022/11/13 03:13:36;;;;;;;3.80;3.43;;;;;;;;;;5053344;28;20850;-79
2022/11/13 03:16:12;;;;;;;4.47;4.07;;;;;;;;;;5052913;28;20198;-79
2022/11/13 03:18:39;;;;;;;4.57;4.03;;;;;;;;;;5053778;28;20198;-79
2022/11/13 03:21:07;;;;;;;4.43;4.03;;;;;;;;;;5053252;28;20206;-79
2022/11/13 03:23:34;;;;;;;4.40;4.00;;;;;;;;;;5053125;28;20236;-79
2022/11/13 03:26:03;;;;;;;4.53;4.13;;;;;;;;;;5052681;28;20204;-79
2022/11/13 03:28:30;;;;;;;5.43;3.87;;;;;;;;;;5053043;28;20217;-79
2022/11/13 03:30:57;;;;;;;4.10;3.70;;;;;;;;;;5052962;28;20206;-79
2022/11/13 03:33:25;;;;;;;4.70;4.20;;;;;;;;;;5052957;28;20205;-79
2022/11/13 03:35:52;;;;;;;5.37;4.67;;;;;;;;;;5053146;28;20210;-79
2022/11/13 03:38:19;;;;;;;4.83;4.40;;;;;;;;;;5053379;28;20202;-79
2022/11/13 03:40:46;;;;;;;5.57;4.83;;;;;;;;;;5052911;28;20194;-79
2022/11/13 03:43:12;;;;;;;6.13;5.27;;;;;;;;;;5052642;28;20233;-78
2022/11/13 03:45:39;;;;;;;7.03;5.57;;;;;;;;;;5052353;28;20220;-79
2022/11/13 03:48:06;;;;;;;9.90;6.37;;;;;;;;;;5052928;28;20621;-79
2022/11/13 03:50:35;;;;;;;4.47;4.07;;;;;;;;;;5052765;28;20650;-79
2022/11/13 03:53:01;;;;;;;5.70;4.40;;;;;;;;;;5052504;28;20210;-78
2022/11/13 03:55:28;;;;;;;4.57;4.17;;;;;;;;;;5052647;28;20208;-79
2022/11/13 03:57:55;;;;;;;5.47;4.67;;;;;;;;;;5052226;28;20213;-78
2022/11/13 04:00:22;;;;;;;8.37;5.93;;;;;;;;;;5052735;28;20224;-79
2022/11/13 04:02:48;;;;;;;6.77;4.93;;;;;;;;;;5052428;28;20213;-79
2022/11/13 04:05:15;;;;;;;5.60;4.63;;;;;;;;;;5052191;28;20210;-79
2022/11/13 04:07:43;;;;;;;5.20;4.70;;;;;;;;;;5052188;28;20202;-79
2022/11/13 04:10:10;;;;;;;6.77;5.30;;;;;;;;;;5038537;28;20206;-79
2022/11/13 04:12:37;;;;;;;6.03;5.23;;;;;;;;;;5052114;28;20205;-79
2022/11/13 04:15:04;;;;;;;5.07;4.50;;;;;;;;;;5052284;28;20205;-79
2022/11/13 04:17:31;;;;;;;5.37;4.57;;;;;;;;;;5051877;28;20205;-79
2022/11/13 04:19:57;;;;;;;6.53;5.30;;;;;;;;;;5051222;28;20217;-79
2022/11/13 04:22:24;;;;;;;9.47;6.30;;;;;;;;;;5052308;28;20225;-78
2022/11/13 04:24:52;;;;;;;11.43;8.37;;;;;;;;;;5051314;28;20238;-79
2022/11/13 04:27:20;;;;;;;14.90;10.77;;;;;;;;;;5052413;28;20402;-79
2022/11/13 04:29:46;;;;;;;13.40;10.70;;;;;;;;;;5051660;28;20754;-79
2022/11/13 04:32:13;;;;;;;11.03;9.07;;;;;;;;;;5051882;28;20255;-78
2022/11/13 04:34:40;;;;;;;10.73;9.03;;;;;;;;;;5051878;28;20263;-79
2022/11/13 04:37:07;;;;;;;8.90;7.40;;;;;;;;;;5052024;28;20194;-79
2022/11/13 04:39:33;;;;;;;7.73;5.97;;;;;;;;;;5051199;28;20285;-78
2022/11/13 04:44:46;;;;;;;16.43;14.43;;;;;;;;;;5051385;28;20295;-78
2022/11/13 04:47:13;;;;;;;9.23;7.87;;;;;;;;;;5051652;28;20206;-78
2022/11/13 04:49:39;;;;;;;6.23;5.73;;;;;;;;;;5051029;28;20197;-79
2022/11/13 04:52:06;;;;;;;6.13;5.53;;;;;;;;;;5051635;28;20208;-78
2022/11/13 04:54:33;;;;;;;6.10;5.50;;;;;;;;;;5051120;28;20681;-78
2022/11/13 04:57:00;;;;;;;5.50;4.93;;;;;;;;;;5051716;28;20592;-78
2022/11/13 04:59:28;;;;;;;10.13;6.23;;;;;;;;;;5051286;28;20594;-79
2022/11/13 05:01:55;;;;;;;8.37;6.53;;;;;;;;;;5051693;28;20209;-79
2022/11/13 05:04:22;;;;;;;8.80;7.07;;;;;;;;;;5050712;28;20234;-78
2022/11/13 05:06:49;;;;;;;6.43;5.70;;;;;;;;;;5051052;28;20573;-78
2022/11/13 05:09:16;;;;;;;9.33;5.70;;;;;;;;;;5051049;28;20256;-78
2022/11/13 05:11:43;;;;;;;12.63;10.63;;;;;;;;;;5051284;28;20613;-79
2022/11/13 05:14:11;;;;;;;9.67;8.67;;;;;;;;;;5051210;28;20201;-78
2022/11/13 05:16:39;;;;;;;20.67;15.83;;;;;;;;;;5050527;28;20256;-78
2022/11/13 05:19:06;;;;;;;6.73;6.00;;;;;;;;;;5050890;28;20255;-78
2022/11/13 05:21:33;;;;;;;11.70;8.37;;;;;;;;;;5050972;28;20262;-79
2022/11/13 05:24:00;;;;;;;6.17;5.60;;;;;;;;;;5050928;28;20704;-78
2022/11/13 05:26:28;;;;;;;7.83;7.07;;;;;;;;;;5050666;28;20566;-78
2022/11/13 05:28:56;;;;;;;19.90;16.03;;;;;;;;;;5050793;28;20202;-78
2022/11/13 05:31:23;;;;;;;23.10;16.70;;;;;;;;;;5050531;28;20209;-77
2022/11/13 05:33:52;;;;;;;16.90;11.93;;;;;;;;;;5050872;28;20205;-78
2022/11/13 05:36:19;;;;;;;14.83;12.13;;;;;;;;;;5047275;28;20198;-76
2022/11/13 05:38:46;;;;;;;10.13;9.13;;;;;;;;;;5050362;28;20201;-77
2022/11/13 05:41:15;;;;;;;9.40;8.50;;;;;;;;;;5050097;28;20202;-77
2022/11/13 05:43:42;;;;;;;7.90;7.10;;;;;;;;;;5050453;28;20787;-77
2022/11/13 05:46:12;;;;;;;9.10;8.20;;;;;;;;;;5049963;28;20202;-77
2022/11/13 05:48:40;;;;;;;7.83;7.03;;;;;;;;;;5047660;28;20611;-77
2022/11/13 05:51:13;;;;;;;8.53;6.57;;;;;;;;;;5048975;28;20638;-77
2022/11/13 05:53:40;;;;;;;6.17;5.57;;;;;;;;;;5049268;28;20256;-77
2022/11/13 05:56:08;;;;;;;7.27;6.57;;;;;;;;;;5048906;28;20205;-76
2022/11/13 05:58:35;;;;;;;6.10;5.60;;;;;;;;;;5048762;28;20209;-77
2022/11/13 06:01:07;;;;;;;6.10;5.50;;;;;;;;;;5047075;28;20680;-77
2022/11/13 06:03:33;;;;;;;9.27;8.37;;;;;;;;;;5049259;28;20516;-77
2022/11/13 06:06:00;;;;;;;15.93;12.57;;;;;;;;;;5048142;28;20624;-77
2022/11/13 06:08:29;;;;;;;16.97;13.07;;;;;;;;;;5048514;28;20711;-76
2022/11/13 06:11:01;;;;;;;21.67;14.47;;;;;;;;;;5048865;28;20581;-76
2022/11/13 06:13:28;;;;;;;14.93;12.53;;;;;;;;;;5048638;28;20208;-77
2022/11/13 06:15:59;;;;;;;15.47;11.47;;;;;;;;;;5048603;28;20205;-77
2022/11/13 06:18:26;;;;;;;11.93;9.50;;;;;;;;;;5048266;28;20201;-77
2022/11/13 06:20:53;;;;;;;10.63;7.93;;;;;;;;;;5048910;28;20209;-77
2022/11/13 06:23:20;;;;;;;8.20;7.30;;;;;;;;;;5048939;28;20232;-77
2022/11/13 06:25:48;;;;;;;10.27;9.20;;;;;;;;;;5048088;28;20230;-77
2022/11/13 06:28:14;;;;;;;11.20;10.00;;;;;;;;;;5048908;28;20213;-77
2022/11/13 06:30:41;;;;;;;10.57;9.53;;;;;;;;;;5048315;28;20643;-77
2022/11/13 06:33:08;;;;;;;11.83;10.60;;;;;;;;;;5041379;28;20209;-77
2022/11/13 06:35:35;;;;;;;12.07;9.43;;;;;;;;;;5046796;28;20198;-77
2022/11/13 06:38:03;;;;;;;10.07;8.97;;;;;;;;;;5048875;28;20284;-77
2022/11/13 06:40:30;;;;;;;10.47;9.27;;;;;;;;;;5046831;28;20704;-77
2022/11/13 06:42:58;;;;;;;13.93;12.53;;;;;;;;;;5049430;28;20202;-77
2022/11/13 06:45:25;;;;;;;19.43;16.23;;;;;;;;;;5050450;28;20222;-77
2022/11/13 06:47:54;;;;;;;14.37;12.80;;;;;;;;;;5052424;28;20201;-77
2022/11/13 06:50:21;;;;;;;12.53;11.03;;;;;;;;;;5051049;28;20210;-77
2022/11/13 06:52:48;;;;;;;9.07;8.17;;;;;;;;;;5050653;28;20202;-77
2022/11/13 06:55:15;;;;;;;8.77;7.87;;;;;;;;;;5051114;28;20567;-77
2022/11/13 06:57:42;;;;;;;8.77;7.10;;;;;;;;;;5051819;28;20221;-77
2022/11/13 07:00:13;;;;;;;9.53;8.63;;;;;;;;;;5050896;28;20255;-77
2022/11/13 07:02:40;;;;;;;10.33;8.27;;;;;;;;;;5051927;28;20634;-78
2022/11/13 07:05:08;;;;;;;12.90;10.37;;;;;;;;;;5051909;28;20229;-77
2022/11/13 07:07:35;;;;;;;12.47;11.23;;;;;;;;;;5051130;28;20210;-77
2022/11/13 07:10:02;;;;;;;19.20;16.13;;;;;;;;;;5050586;28;20206;-77
2022/11/13 07:12:29;;;;;;;16.63;14.03;;;;;;;;;;5052188;28;20209;-77
2022/11/13 07:14:56;;;;;;;13.30;12.00;;;;;;;;;;5051893;28;20206;-77
2022/11/13 07:17:24;;;;;;;14.43;10.60;;;;;;;;;;5050005;28;20214;-79
2022/11/13 07:19:53;;;;;;;9.37;8.27;;;;;;;;;;5051416;28;20206;-79
2022/11/13 07:22:20;;;;;;;7.67;6.87;;;;;;;;;;5050676;28;20596;-78
2022/11/13 07:24:47;;;;;;;5.73;4.97;;;;;;;;;;5049715;28;20236;-78
2022/11/13 07:27:15;;;;;;;6.33;5.13;;;;;;;;;;5050710;28;20203;-79
2022/11/13 07:29:42;;;;;;;5.40;4.50;;;;;;;;;;5052112;28;20232;-78
2022/11/13 07:32:08;;;;;;;6.40;5.80;;;;;;;;;;5051698;28;20313;-79
2022/11/13 07:34:37;;;;;;;5.50;5.00;;;;;;;;;;5052546;28;20201;-79
2022/11/13 07:37:05;;;;;;;6.30;5.70;;;;;;;;;;5053143;28;20463;-78
2022/11/13 07:39:32;;;;;;;5.43;4.93;;;;;;;;;;5052253;28;20209;-78
2022/11/13 07:41:58;;;;;;;6.37;4.70;;;;;;;;;;5042723;28;20198;-79
2022/11/13 07:44:25;;;;;;;8.47;7.67;;;;;;;;;;5052453;28;20225;-78
2022/11/13 07:46:52;;;;;;;5.07;4.57;;;;;;;;;;5052611;28;20205;-78
2022/11/13 07:49:18;;;;;;;6.20;5.43;;;;;;;;;;5051990;28;20202;-78
2022/11/13 07:51:47;;;;;;;6.90;4.90;;;;;;;;;;5052636;28;20212;-79
2022/11/13 07:54:14;;;;;;;5.47;4.97;;;;;;;;;;5052760;28;20201;-78
2022/11/13 07:56:41;;;;;;;6.17;5.57;;;;;;;;;;5052469;28;20693;-78
2022/11/13 07:59:08;;;;;;;4.67;4.27;;;;;;;;;;5052202;28;20263;-78
2022/11/13 08:01:34;;;;;;;5.53;4.10;;;;;;;;;;5051163;28;20213;-79
2022/11/13 08:04:01;;;;;;;4.70;4.30;;;;;;;;;;5052378;28;20259;-79
2022/11/13 08:06:30;;;;;;;4.20;3.80;;;;;;;;;;5051849;28;20642;-79
2022/11/13 08:08:58;;;;;;;5.67;4.80;;;;;;;;;;5051830;28;20213;-78
2022/11/13 08:11:26;;;;;;;9.37;4.60;;;;;;;;;;5052011;28;20240;-81
2022/11/13 08:13:52;;;;;;;4.63;4.23;;;;;;;;;;5052251;28;20205;-79
2022/11/13 08:16:23;;;;;;;5.27;4.77;;;;;;;;;;5051788;28;20202;-78
2022/11/13 08:18:49;;;;;;;4.83;4.37;;;;;;;;;;5051244;28;20291;-79
2022/11/13 08:21:16;;;;;;;7.53;4.47;;;;;;;;;;5046768;28;20209;-78
2022/11/13 08:23:43;;;;;;;5.00;4.60;;;;;;;;;;5051046;28;20234;-78
2022/11/13 08:26:11;;;;;;;4.67;4.27;;;;;;;;;;5050846;28;20719;-78
2022/11/13 08:28:38;;;;;;;10.40;4.60;;;;;;;;;;5050990;28;20209;-79
2022/11/13 08:31:10;;;;;;;5.33;4.77;;;;;;;;;;5050419;28;20635;-79
2022/11/13 08:33:37;;;;;;;5.13;4.60;;;;;;;;;;5050969;28;20198;-79
2022/11/13 08:36:04;;;;;;;4.97;4.47;;;;;;;;;;5051684;28;20588;-78
2022/11/13 08:38:31;;;;;;;7.13;4.20;;;;;;;;;;5052127;28;20692;-78
2022/11/13 08:40:58;;;;;;;4.80;4.40;;;;;;;;;;5051241;28;20680;-78
2022/11/13 08:43:26;;;;;;;4.73;4.33;;;;;;;;;;5051484;28;20209;-79
2022/11/13 08:45:53;;;;;;;5.43;4.93;;;;;;;;;;5051356;28;20617;-78
2022/11/13 08:48:22;;;;;;;4.47;4.07;;;;;;;;;;5051766;28;20202;-78
2022/11/13 08:50:54;;;;;;;5.10;4.50;;;;;;;;;;5050669;28;20217;-78
2022/11/13 08:53:21;;;;;;;10.73;7.80;;;;;;;;;;5051546;28;20209;-78
2022/11/13 08:55:47;;;;;;;19.33;13.63;;;;;;;;;;5050907;28;20202;-78
2022/11/13 08:58:14;;;;;;;53.90;29.13;;;;;;;;;;5051509;28;20205;-78
2022/11/13 09:00:43;;;;;;;20.47;13.03;;;;;;;;;;5051119;28;20194;-78
2022/11/13 09:03:11;;;;;;;9.40;7.87;;;;;;;;;;5051100;28;20741;-78
2022/11/13 09:05:38;;;;;;;10.93;8.50;;;;;;;;;;5050638;28;20222;-77
2022/11/13 09:08:06;;;;;;;7.00;6.07;;;;;;;;;;5051401;28;20202;-78
2022/11/13 09:10:33;;;;;;;7.80;5.00;;;;;;;;;;5051178;28;20229;-78
2022/11/13 09:13:01;;;;;;;10.83;5.13;;;;;;;;;;5051102;28;20208;-78
2022/11/13 09:15:28;;;;;;;7.37;5.00;;;;;;;;;;5050756;28;20209;-78
2022/11/13 09:17:58;;;;;;;5.63;3.83;;;;;;;;;;5051092;28;20624;-78
2022/11/13 09:20:25;;;;;;;8.07;4.37;;;;;;;;;;5042023;28;20204;-78
2022/11/13 09:22:57;;;;;;;4.47;4.07;;;;;;;;;;5050625;28;20206;-78
2022/11/13 09:25:23;;;;;;;4.33;3.93;;;;;;;;;;5049724;28;20225;-78
2022/11/13 09:27:53;;;;;;;7.33;5.07;;;;;;;;;;5043188;28;20212;-78
2022/11/13 09:30:20;;;;;;;14.50;11.43;;;;;;;;;;5049322;28;20289;-78
2022/11/13 09:32:47;;;;;;;28.80;18.60;;;;;;;;;;5050420;28;21010;-78
2022/11/13 09:35:15;;;;;;;9.23;8.17;;;;;;;;;;5050352;28;20206;-78
2022/11/13 09:37:42;;;;;;;7.43;5.93;;;;;;;;;;5050911;28;20203;-78
2022/11/13 09:40:21;;;;;;;7.07;6.30;;;;;;;;;;5050252;28;20206;-78
2022/11/13 09:42:48;;;;;;;5.40;4.87;;;;;;;;;;5050617;28;20202;-78
2022/11/13 09:45:15;;;;;;;6.13;4.57;;;;;;;;;;5050481;28;20226;-78
2022/11/13 09:47:44;;;;;;;4.97;4.00;;;;;;;;;;5050928;28;20195;-78
2022/11/13 09:50:17;;;;;;;5.87;4.90;;;;;;;;;;5049935;28;20232;-79
2022/11/13 09:52:45;;;;;;;10.47;5.10;;;;;;;;;;5050287;28;20628;-78
2022/11/13 09:55:14;;;;;;;5.77;5.27;;;;;;;;;;5050309;28;20700;-78
2022/11/13 09:57:44;;;;;;;6.07;5.07;;;;;;;;;;5050493;28;20209;-78
2022/11/13 10:00:17;;;;;;;6.47;5.57;;;;;;;;;;5050491;28;20604;-78
2022/11/13 10:02:53;;;;;;;8.30;6.30;;;;;;;;;;5050060;28;20210;-78
2022/11/13 10:05:31;;;;;;;6.20;5.60;;;;;;;;;;5050143;28;20712;-78
2022/11/13 10:08:06;;;;;;;6.80;6.03;;;;;;;;;;5050264;28;20197;-78
2022/11/13 10:10:43;;;;;;;5.67;5.03;;;;;;;;;;5050355;28;20200;-78
2022/11/13 10:13:14;;;;;;;11.03;4.73;;;;;;;;;;5049514;28;20202;-78
2022/11/13 10:15:42;;;;;;;5.83;5.33;;;;;;;;;;5050302;28;20198;-78
2022/11/13 10:18:13;;;;;;;5.33;4.83;;;;;;;;;;5051443;28;20197;-78
2022/11/13 10:20:47;;;;;;;5.63;5.07;;;;;;;;;;5054322;28;20204;-78
2022/11/13 10:23:16;;;;;;;6.43;5.83;;;;;;;;;;5054053;28;20235;-78
2022/11/13 10:25:44;;;;;;;6.27;4.70;;;;;;;;;;5054131;28;20287;-78
2022/11/13 10:28:14;;;;;;;8.30;4.93;;;;;;;;;;5054544;28;20219;-78
2022/11/13 10:31:36;;;;;;;4.47;4.07;;;;;;;;;;5053904;28;20197;-78
2022/11/13 10:34:03;;;;;;;4.80;3.90;;;;;;;;;;5053333;28;20217;-78
2022/11/13 10:36:36;;;;;;;4.60;4.20;;;;;;;;;;5053983;28;20208;-78
2022/11/13 10:39:09;;;;;;;7.00;4.43;;;;;;;;;;5053924;28;20289;-78
2022/11/13 10:41:45;;;;;;;5.63;5.03;;;;;;;;;;5054024;28;20202;-78
2022/11/13 10:44:23;;;;;;;5.03;4.63;;;;;;;;;;5039557;28;20208;-78
2022/11/13 10:46:50;;;;;;;4.87;4.03;;;;;;;;;;5053799;28;20221;-78
2022/11/13 10:49:19;;;;;;;4.80;3.80;;;;;;;;;;5053515;28;20201;-78
2022/11/13 10:51:55;;;;;;;5.00;4.50;;;;;;;;;;5051847;28;20564;-75
2022/11/13 10:54:24;;;;;;;10.73;6.37;;;;;;;;;;5053568;28;20197;-80
2022/11/13 10:56:59;;;;;;;10.03;7.83;;;;;;;;;;5053517;28;20198;-82
2022/11/13 10:59:27;;;;;;;8.37;7.37;;;;;;;;;;5053375;28;20281;-86
2022/11/13 11:01:53;;;;;;;9.47;6.57;;;;;;;;;;5053519;28;20205;-76
2022/11/13 11:04:22;;;;;;;5.97;5.37;;;;;;;;;;5036775;28;20203;-77
2022/11/13 11:06:50;;;;;;;3.63;3.37;;;;;;;;;;5050158;28;20320;-77
2022/11/13 11:09:22;;;;;;;4.20;3.50;;;;;;;;;;5052573;28;20206;-77
2022/11/13 11:12:17;;;;;;;6.10;4.53;;;;;;;;;;5052705;28;20702;-77
2022/11/13 11:15:01;;;;;;;3.30;3.00;;;;;;;;;;5046882;28;20210;-78
2022/11/13 11:17:33;;;;;;;4.77;4.37;;;;;;;;;;5044703;28;20208;-77
2022/11/13 11:20:04;;;;;;;31.00;10.20;;;;;;;;;;5053095;28;20202;-78
2022/11/13 11:22:33;;;;;;;7.17;4.60;;;;;;;;;;5052832;28;20204;-78
2022/11/13 11:25:06;;;;;;;4.90;4.47;;;;;;;;;;5052405;28;20236;-78
2022/11/13 11:27:35;;;;;;;6.33;4.20;;;;;;;;;;5053068;28;20205;-77
2022/11/13 11:30:05;;;;;;;5.63;4.20;;;;;;;;;;5051705;28;20206;-77
2022/11/13 11:32:34;;;;;;;3.43;3.20;;;;;;;;;;5052992;28;20244;-78
2022/11/13 11:35:07;;;;;;;47.47;21.47;;;;;;;;;;5052771;28;20202;-77
2022/11/13 11:37:39;;;;;;;39.67;10.57;;;;;;;;;;5053000;28;20210;-78
2022/11/13 11:40:26;;;;;;;8.63;5.93;;;;;;;;;;5052417;28;20206;-75
2022/11/13 11:42:59;;;;;;;4.07;3.73;;;;;;;;;;5052835;28;20686;-75
2022/11/13 11:45:28;;;;;;;6.43;4.17;;;;;;;;;;5052502;28;20241;-75
2022/11/13 11:47:56;;;;;;;293.80;51.63;;;;;;;;;;5052727;28;20206;-75
2022/11/13 11:50:30;;;;;;;9.40;5.00;;;;;;;;;;5052374;28;20199;-78
2022/11/13 11:53:01;;;;;;;3.43;3.13;;;;;;;;;;5052896;28;20210;-78
2022/11/13 11:55:48;;;;;;;3.93;3.53;;;;;;;;;;5052070;28;20619;-78
2022/11/13 11:58:22;;;;;;;4.70;4.20;;;;;;;;;;5038348;28;20578;-78
2022/11/13 12:00:50;;;;;;;4.73;4.23;;;;;;;;;;5052293;28;20229;-78
2022/11/13 12:03:46;;;;;;;4.33;3.33;;;;;;;;;;5052203;28;20209;-78
2022/11/13 12:06:18;;;;;;;4.30;3.90;;;;;;;;;;5052290;28;20224;-78
2022/11/13 12:08:49;;;;;;;4.50;4.10;;;;;;;;;;5052513;28;20208;-78
2022/11/13 12:11:26;;;;;;;4.00;3.60;;;;;;;;;;5052067;28;20568;-79
2022/11/13 12:13:58;;;;;;;3.87;3.57;;;;;;;;;;5052135;28;20204;-77
2022/11/13 12:16:34;;;;;;;6.37;4.00;;;;;;;;;;5052121;28;20742;-77
2022/11/13 12:19:04;;;;;;;4.93;4.43;;;;;;;;;;5052496;28;20263;-77
2022/11/13 12:21:50;;;;;;;4.87;3.90;;;;;;;;;;5051855;28;20202;-78
2022/11/13 12:24:35;;;;;;;4.10;3.80;;;;;;;;;;5051974;28;20222;-77
2022/11/13 12:27:14;;;;;;;4.47;4.00;;;;;;;;;;5052255;28;20690;-78
2022/11/13 12:29:52;;;;;;;3.97;3.67;;;;;;;;;;5051796;28;20208;-78
2022/11/13 12:32:28;;;;;;;3.93;3.63;;;;;;;;;;5038324;28;20680;-78
2022/11/13 12:35:00;;;;;;;3.70;3.33;;;;;;;;;;5051873;28;20204;-77
2022/11/13 12:37:34;;;;;;;5.30;4.50;;;;;;;;;;5038812;28;20202;-78
2022/11/13 12:40:07;;;;;;;3.97;3.60;;;;;;;;;;5050949;28;20696;-78
2022/11/13 12:42:40;;;;;;;4.37;3.47;;;;;;;;;;5051299;28;20198;-78
2022/11/13 12:45:13;;;;;;;4.93;3.37;;;;;;;;;;5051142;28;20212;-78
2022/11/13 12:47:41;;;;;;;9.60;5.60;;;;;;;;;;5051649;28;20225;-78
2022/11/13 12:50:27;;;;;;;6.97;4.13;;;;;;;;;;5051116;28;20206;-78
2022/11/13 12:53:01;;;;;;;4.37;3.97;;;;;;;;;;5051460;28;20217;-77
2022/11/13 12:55:29;;;;;;;4.17;3.80;;;;;;;;;;5051083;28;20197;-75
2022/11/13 12:58:07;;;;;;;4.60;4.13;;;;;;;;;;5051624;28;20198;-77
2022/11/13 13:00:35;;;;;;;4.80;4.37;;;;;;;;;;5051308;28;20252;-78
2022/11/13 13:03:25;;;;;;;5.00;4.30;;;;;;;;;;5051288;28;20194;-77
2022/11/13 13:06:03;;;;;;;4.97;3.93;;;;;;;;;;5051198;28;20645;-78
2022/11/13 13:09:09;;;;;;;5.47;4.80;;;;;;;;;;5037865;28;20710;-77
2022/11/13 13:11:41;;;;;;;6.03;4.73;;;;;;;;;;5051170;28;20339;-78
2022/11/13 13:14:32;;;;;;;8.23;6.43;;;;;;;;;;5051399;28;20202;-78
2022/11/13 13:17:07;;;;;;;9.10;6.57;;;;;;;;;;5051324;28;20201;-78
2022/11/13 13:19:34;;;;;;;7.30;5.27;;;;;;;;;;5051108;28;20197;-78
2022/11/13 13:22:01;;;;;;;6.17;5.57;;;;;;;;;;5049027;28;20279;-76
2022/11/13 13:24:30;;;;;;;6.17;4.43;;;;;;;;;;5050618;28;20232;-77
2022/11/13 13:26:57;;;;;;;11.30;8.30;;;;;;;;;;5050233;28;20217;-78
2022/11/13 13:29:28;;;;;;;9.23;7.50;;;;;;;;;;5050336;28;20213;-79
2022/11/13 13:32:02;;;;;;;11.47;8.70;;;;;;;;;;5050747;28;20204;-78
2022/11/13 13:34:37;;;;;;;8.13;7.37;;;;;;;;;;5050349;28;20209;-80
2022/11/13 13:37:12;;;;;;;4.87;3.70;;;;;;;;;;5050913;28;20311;-80
2022/11/13 13:39:48;;;;;;;7.67;6.70;;;;;;;;;;5050275;28;20259;-81
2022/11/13 13:42:26;;;;;;;7.17;5.90;;;;;;;;;;5050841;28;20203;-81
2022/11/13 13:45:06;;;;;;;13.40;10.23;;;;;;;;;;5050231;28;20211;-80
2022/11/13 13:47:37;;;;;;;7.70;6.90;;;;;;;;;;5050349;28;20225;-81
2022/11/13 13:50:06;;;;;;;13.23;9.97;;;;;;;;;;5049927;28;20204;-80
2022/11/13 13:52:35;;;;;;;12.23;8.77;;;;;;;;;;5050272;28;20206;-81
2022/11/13 13:55:04;;;;;;;8.77;7.50;;;;;;;;;;5050103;28;20241;-80
2022/11/13 13:57:30;;;;;;;10.60;7.50;;;;;;;;;;5050379;28;20203;-81
2022/11/13 13:59:59;;;;;;;11.53;8.77;;;;;;;;;;5049949;28;20209;-80
2022/11/13 14:02:26;;;;;;;13.47;9.13;;;;;;;;;;5049957;28;20625;-81
2022/11/13 14:04:54;;;;;;;16.30;10.70;;;;;;;;;;5050208;28;20201;-81
2022/11/13 14:07:24;;;;;;;8.87;7.90;;;;;;;;;;5050274;28;20234;-81
2022/11/13 14:10:05;;;;;;;17.37;13.53;;;;;;;;;;5049788;28;20210;-80
2022/11/13 14:12:31;;;;;;;6.40;5.77;;;;;;;;;;5050480;28;20202;-82
2022/11/13 14:15:00;;;;;;;6.87;6.00;;;;;;;;;;5049694;28;20213;-80
2022/11/13 14:17:30;;;;;;;6.23;5.63;;;;;;;;;;5050860;28;20286;-81
2022/11/13 14:19:59;;;;;;;6.20;5.43;;;;;;;;;;5049711;28;20225;-81
2022/11/13 14:22:26;;;;;;;6.37;5.43;;;;;;;;;;5050168;28;20237;-81
2022/11/13 14:24:54;;;;;;;8.53;7.13;;;;;;;;;;5050330;28;20226;-81
2022/11/13 14:27:23;;;;;;;7.00;6.37;;;;;;;;;;5049593;28;20236;-81
2022/11/13 14:29:52;;;;;;;7.40;6.80;;;;;;;;;;5049914;28;20285;-81
2022/11/13 14:32:24;;;;;;;7.53;6.37;;;;;;;;;;5035816;28;20255;-81
2022/11/13 14:34:52;;;;;;;8.77;7.93;;;;;;;;;;5049894;28;20207;-81
2022/11/13 14:37:23;;;;;;;15.77;13.50;;;;;;;;;;5049947;28;20628;-81
2022/11/13 14:39:50;;;;;;;18.13;16.23;;;;;;;;;;5049594;28;20205;-80
2022/11/13 14:42:19;;;;;;;14.67;13.13;;;;;;;;;;5049953;28;20264;-81
2022/11/13 14:44:48;;;;;;;11.13;9.97;;;;;;;;;;5050307;28;20640;-81
2022/11/13 14:47:24;;;;;;;9.87;8.90;;;;;;;;;;5049982;28;20229;-82
2022/11/13 14:49:51;;;;;;;9.37;8.47;;;;;;;;;;5036406;28;20198;-82
2022/11/13 14:52:23;;;;;;;7.40;6.40;;;;;;;;;;5049622;28;20213;-82
2022/11/13 14:55:01;;;;;;;6.50;5.17;;;;;;;;;;5049868;28;20260;-82